sensor_id;sensor_type;location;lat;lon;timestamp;temperature;humidity
53643;DHT22;39546;45.534;12.048;2023-03-21T08:37:39;11.00;85.40
53643;DHT22;39546;45.534;12.048;2023-03-21T08:43:42;11.30;86.50
53643;DHT22;39546;45.534;12.048;2023-03-21T08:49:44;11.50;88.00
53643;DHT22;39546;45.534;12.048;2023-03-21T08:55:48;11.80;88.60
53643;DHT22;39546;45.534;12.048;2023-03-21T09:01:50;12.10;88.90
53643;DHT22;39546;45.534;12.048;2023-03-21T09:07:53;12.30;89.10
53643;DHT22;39546;45.534;12.048;2023-03-21T09:13:55;12.50;89.10
53643;DHT22;39546;45.534;12.048;2023-03-21T09:19:57;12.80;88.90
53643;DHT22;39546;45.534;12.048;2023-03-21T09:26:01;13.00;88.60
53643;DHT22;39546;45.534;12.048;2023-03-21T09:32:03;13.20;88.40
53643;DHT22;39546;45.534;12.048;2023-03-21T09:38:07;13.30;88.20
53643;DHT22;39546;45.534;12.048;2023-03-21T09:44:20;13.50;88.00
53643;DHT22;39546;45.534;12.048;2023-03-21T09:50:30;13.70;87.50
53643;DHT22;39546;45.534;12.048;2023-03-21T09:56:40;14.00;87.40
53643;DHT22;39546;45.534;12.048;2023-03-21T10:02:46;14.20;87.10
53643;DHT22;39546;45.534;12.048;2023-03-21T10:09:06;14.30;86.50
53643;DHT22;39546;45.534;12.048;2023-03-21T10:15:13;14.50;86.30
53643;DHT22;39546;45.534;12.048;2023-03-21T10:21:22;14.80;86.00
53643;DHT22;39546;45.534;12.048;2023-03-21T10:27:41;15.00;85.50
53643;DHT22;39546;45.534;12.048;2023-03-21T10:33:46;15.20;84.80
53643;DHT22;39546;45.534;12.048;2023-03-21T10:39:51;15.40;84.30
53643;DHT22;39546;45.534;12.048;2023-03-21T10:45:54;15.50;84.00
53643;DHT22;39546;45.534;12.048;2023-03-21T10:51:58;15.70;83.60
53643;DHT22;39546;45.534;12.048;2023-03-21T10:58:13;15.90;83.20
53643;DHT22;39546;45.534;12.048;2023-03-21T11:04:22;16.20;82.50
53643;DHT22;39546;45.534;12.048;2023-03-21T11:10:36;16.40;81.30
53643;DHT22;39546;45.534;12.048;2023-03-21T11:16:44;16.80;80.80
53643;DHT22;39546;45.534;12.048;2023-03-21T11:22:48;17.10;80.90
53643;DHT22;39546;45.534;12.048;2023-03-21T11:28:55;17.40;78.50
53643;DHT22;39546;45.534;12.048;2023-03-21T11:35:16;17.60;78.40
53643;DHT22;39546;45.534;12.048;2023-03-21T11:41:47;17.80;77.20
53643;DHT22;39546;45.534;12.048;2023-03-21T11:47:54;18.20;77.60
53643;DHT22;39546;45.534;12.048;2023-03-21T11:54:18;18.40;76.30
53643;DHT22;39546;45.534;12.048;2023-03-21T12:00:34;18.50;76.90
53643;DHT22;39546;45.534;12.048;2023-03-21T12:06:52;18.50;77.10
53643;DHT22;39546;45.534;12.048;2023-03-21T12:38:20;19.30;74.60
53643;DHT22;39546;45.534;12.048;2023-03-21T12:44:25;19.30;73.20
53643;DHT22;39546;45.534;12.048;2023-03-21T12:50:33;19.30;72.90
53643;DHT22;39546;45.534;12.048;2023-03-21T12:56:58;19.10;68.50
53643;DHT22;39546;45.534;12.048;2023-03-21T13:09:16;19.50;69.90
53643;DHT22;39546;45.534;12.048;2023-03-21T13:15:58;19.70;69.20
53643;DHT22;39546;45.534;12.048;2023-03-21T13:22:17;19.80;69.40
53643;DHT22;39546;45.534;12.048;2023-03-21T13:28:33;19.90;68.60
53643;DHT22;39546;45.534;12.048;2023-03-21T13:34:38;19.90;69.70
53643;DHT22;39546;45.534;12.048;2023-03-21T13:47:00;19.90;66.70
53643;DHT22;39546;45.534;12.048;2023-03-21T13:53:35;19.80;67.20
53643;DHT22;39546;45.534;12.048;2023-03-21T13:59:38;19.80;66.80
53643;DHT22;39546;45.534;12.048;2023-03-21T14:05:41;20.00;66.30
53643;DHT22;39546;45.534;12.048;2023-03-21T14:11:50;20.20;66.60
53643;DHT22;39546;45.534;12.048;2023-03-21T14:24:05;20.50;65.90
53643;DHT22;39546;45.534;12.048;2023-03-21T14:30:11;20.60;65.00
53643;DHT22;39546;45.534;12.048;2023-03-21T14:36:25;20.80;65.10
53643;DHT22;39546;45.534;12.048;2023-03-21T14:42:34;20.90;64.40
53643;DHT22;39546;45.534;12.048;2023-03-21T14:48:36;21.00;64.40
53643;DHT22;39546;45.534;12.048;2023-03-21T14:54:40;21.30;64.90
53643;DHT22;39546;45.534;12.048;2023-03-21T15:00:43;21.40;63.00
53643;DHT22;39546;45.534;12.048;2023-03-21T15:07:01;21.40;63.00
53643;DHT22;39546;45.534;12.048;2023-03-21T15:13:18;21.40;62.50
53643;DHT22;39546;45.534;12.048;2023-03-21T15:19:27;21.50;63.20
53643;DHT22;39546;45.534;12.048;2023-03-21T15:25:32;21.50;61.90
53643;DHT22;39546;45.534;12.048;2023-03-21T15:31:38;21.70;62.90
53643;DHT22;39546;45.534;12.048;2023-03-21T15:37:41;21.80;62.80
53643;DHT22;39546;45.534;12.048;2023-03-21T15:43:44;22.30;62.00
53643;DHT22;39546;45.534;12.048;2023-03-21T15:49:52;22.40;61.00
53643;DHT22;39546;45.534;12.048;2023-03-21T15:55:56;22.60;61.30
53643;DHT22;39546;45.534;12.048;2023-03-21T16:02:03;22.50;60.80
53643;DHT22;39546;45.534;12.048;2023-03-21T16:08:19;22.30;61.60
53643;DHT22;39546;45.534;12.048;2023-03-21T16:14:23;22.20;62.40
53643;DHT22;39546;45.534;12.048;2023-03-21T16:20:37;21.80;62.70
53643;DHT22;39546;45.534;12.048;2023-03-21T16:26:45;21.50;64.20
53643;DHT22;39546;45.534;12.048;2023-03-21T16:32:51;21.10;65.30
53643;DHT22;39546;45.534;12.048;2023-03-21T16:38:54;20.80;66.10
53643;DHT22;39546;45.534;12.048;2023-03-21T16:44:56;20.50;67.20
53643;DHT22;39546;45.534;12.048;2023-03-21T16:50:58;20.10;68.30
53643;DHT22;39546;45.534;12.048;2023-03-21T16:57:01;19.90;68.80
53643;DHT22;39546;45.534;12.048;2023-03-21T17:03:14;19.70;69.50
53643;DHT22;39546;45.534;12.048;2023-03-21T17:09:21;19.40;70.00
53643;DHT22;39546;45.534;12.048;2023-03-21T17:15:24;19.30;70.70
53643;DHT22;39546;45.534;12.048;2023-03-21T17:21:28;19.20;71.70
53643;DHT22;39546;45.534;12.048;2023-03-21T17:27:30;19.10;72.30
53643;DHT22;39546;45.534;12.048;2023-03-21T17:33:32;19.00;73.00
53643;DHT22;39546;45.534;12.048;2023-03-21T17:39:34;18.90;73.50
53643;DHT22;39546;45.534;12.048;2023-03-21T17:45:36;18.80;74.10
53643;DHT22;39546;45.534;12.048;2023-03-21T17:51:39;18.70;74.70
53643;DHT22;39546;45.534;12.048;2023-03-21T17:57:41;18.50;75.10
53643;DHT22;39546;45.534;12.048;2023-03-21T18:03:44;18.50;75.40
53643;DHT22;39546;45.534;12.048;2023-03-21T18:09:46;18.40;75.70
53643;DHT22;39546;45.534;12.048;2023-03-21T18:15:48;18.40;76.00
53643;DHT22;39546;45.534;12.048;2023-03-21T18:21:51;18.30;76.40
53643;DHT22;39546;45.534;12.048;2023-03-21T18:27:53;18.20;76.80
53643;DHT22;39546;45.534;12.048;2023-03-21T18:33:55;18.10;77.20
53643;DHT22;39546;45.534;12.048;2023-03-21T18:39:58;18.10;77.40
53643;DHT22;39546;45.534;12.048;2023-03-21T18:46:00;18.00;77.60
53643;DHT22;39546;45.534;12.048;2023-03-21T18:52:03;17.90;77.90
53643;DHT22;39546;45.534;12.048;2023-03-21T18:58:05;17.90;78.10
53643;DHT22;39546;45.534;12.048;2023-03-21T19:04:08;17.80;78.40
53643;DHT22;39546;45.534;12.048;2023-03-21T19:10:11;17.80;78.50
53643;DHT22;39546;45.534;12.048;2023-03-21T19:16:13;17.80;78.70
53643;DHT22;39546;45.534;12.048;2023-03-21T19:22:15;17.70;78.90
53643;DHT22;39546;45.534;12.048;2023-03-21T19:28:18;17.70;79.00
53643;DHT22;39546;45.534;12.048;2023-03-21T19:34:20;17.70;79.10
53643;DHT22;39546;45.534;12.048;2023-03-21T19:40:22;17.70;79.20
53643;DHT22;39546;45.534;12.048;2023-03-21T19:46:25;17.60;79.30
53643;DHT22;39546;45.534;12.048;2023-03-21T19:52:27;17.60;79.40
53643;DHT22;39546;45.534;12.048;2023-03-21T19:58:29;17.50;79.60
53643;DHT22;39546;45.534;12.048;2023-03-21T20:04:32;17.50;79.70
53643;DHT22;39546;45.534;12.048;2023-03-21T20:10:35;17.50;79.80
53643;DHT22;39546;45.534;12.048;2023-03-21T20:16:38;17.50;79.90
53643;DHT22;39546;45.534;12.048;2023-03-21T20:22:41;17.40;80.00
53643;DHT22;39546;45.534;12.048;2023-03-21T20:28:43;17.30;80.10
53643;DHT22;39546;45.534;12.048;2023-03-21T20:34:52;17.30;80.30
53643;DHT22;39546;45.534;12.048;2023-03-21T20:40:57;17.30;80.50
53643;DHT22;39546;45.534;12.048;2023-03-21T20:46:59;17.30;80.50
53643;DHT22;39546;45.534;12.048;2023-03-21T20:53:06;17.20;80.60
53643;DHT22;39546;45.534;12.048;2023-03-21T20:59:14;17.20;80.70
53643;DHT22;39546;45.534;12.048;2023-03-21T21:05:16;17.10;80.80
53643;DHT22;39546;45.534;12.048;2023-03-21T21:11:21;17.10;80.80
53643;DHT22;39546;45.534;12.048;2023-03-21T21:17:23;17.00;80.90
53643;DHT22;39546;45.534;12.048;2023-03-21T21:23:45;17.00;80.90
53643;DHT22;39546;45.534;12.048;2023-03-21T21:29:47;17.00;80.90
53643;DHT22;39546;45.534;12.048;2023-03-21T21:35:51;16.90;80.90
53643;DHT22;39546;45.534;12.048;2023-03-21T21:41:56;16.80;81.00
53643;DHT22;39546;45.534;12.048;2023-03-21T21:47:58;16.80;81.10
53643;DHT22;39546;45.534;12.048;2023-03-21T21:54:01;16.80;81.40
53643;DHT22;39546;45.534;12.048;2023-03-21T22:00:05;16.70;81.60
53643;DHT22;39546;45.534;12.048;2023-03-21T22:06:13;16.60;81.50
53643;DHT22;39546;45.534;12.048;2023-03-21T22:12:15;16.60;81.50
53643;DHT22;39546;45.534;12.048;2023-03-21T22:18:17;16.50;81.20
53643;DHT22;39546;45.534;12.048;2023-03-21T22:24:19;16.40;81.40
53643;DHT22;39546;45.534;12.048;2023-03-21T22:30:21;16.30;81.40
53643;DHT22;39546;45.534;12.048;2023-03-21T22:36:23;16.30;81.50
53643;DHT22;39546;45.534;12.048;2023-03-21T22:42:26;16.20;81.60
53643;DHT22;39546;45.534;12.048;2023-03-21T22:48:29;16.20;81.50
53643;DHT22;39546;45.534;12.048;2023-03-21T22:54:31;16.10;81.50
53643;DHT22;39546;45.534;12.048;2023-03-21T23:00:33;16.00;81.50
53643;DHT22;39546;45.534;12.048;2023-03-21T23:06:58;15.90;81.50
53643;DHT22;39546;45.534;12.048;2023-03-21T23:13:01;15.80;81.50
53643;DHT22;39546;45.534;12.048;2023-03-21T23:19:04;15.70;81.60
53643;DHT22;39546;45.534;12.048;2023-03-21T23:25:06;15.70;81.40
53643;DHT22;39546;45.534;12.048;2023-03-21T23:31:11;15.70;81.50
53643;DHT22;39546;45.534;12.048;2023-03-21T23:37:13;15.60;81.60
53643;DHT22;39546;45.534;12.048;2023-03-21T23:43:15;15.60;81.50
53643;DHT22;39546;45.534;12.048;2023-03-21T23:49:17;15.60;81.50
53643;DHT22;39546;45.534;12.048;2023-03-21T23:55:19;15.60;81.50
